Alto, New Mexico
Current Conditions -  °F | °C
As of 1:55 AM on Monday 20 Oct 2014 (Local Time) from KSRR Reporting Station
Overcast Overcast  
Wind Chill: 48°   Ceiling: 1600
Heat Index: 48°   Visibility: 10mi
Dew Point: 46°   Wind: 0mph
Humidity: 93%   Direction: NA
Pressure: 30.25"   Gusts: NA
Location:  33.39°N, 105.69°W
Report Text: KSRR 200755Z AUTO 00000KT 10SM BKN016 OVC023 09/08 A3025 RMK AO2
Loading
Personal Weather Stations






























Interactive Weather Map New forecast layout! Learn more

10-Day Weather Forecast

Advertisements
Track Severe Weather on mobile